Time;durP1;ratioP1;P1;durP2;ratioP2;P2;SDS_P1;SDS_P2;PMS_P1;PMS_P2;Temp;Humidity;BMP_temperature;BMP_pressure;BME280_temperature;BME280_humidity;BME280_pressure;Samples;Min_cycle;Max_cycle;Signal;HPM_P1;HPM_P2
2023/09/13 00:02:24;;;;;;;13.80;9.32;;;;;;;;;;5053406;28;20044;-89
2023/09/13 00:04:54;;;;;;;14.93;9.80;;;;;;;;;;5036009;28;20056;-89
2023/09/13 00:07:22;;;;;;;10.27;9.25;;;;;;;;;;5036220;28;20052;-89
2023/09/13 00:09:49;;;;;;;15.00;8.98;;;;;;;;;;5036269;28;20049;-88
2023/09/13 00:12:16;;;;;;;12.93;8.63;;;;;;;;;;5035966;28;20094;-89
2023/09/13 00:14:44;;;;;;;14.25;8.50;;;;;;;;;;5036126;28;20049;-87
2023/09/13 00:17:11;;;;;;;22.15;9.40;;;;;;;;;;5058964;28;20092;-89
2023/09/13 00:19:41;;;;;;;12.98;8.70;;;;;;;;;;5030246;28;20053;-88
2023/09/13 00:22:08;;;;;;;13.73;8.10;;;;;;;;;;5036086;28;20052;-88
2023/09/13 00:24:35;;;;;;;10.02;7.75;;;;;;;;;;5035666;28;20052;-88
2023/09/13 00:27:03;;;;;;;11.57;7.95;;;;;;;;;;5027609;28;20485;-87
2023/09/13 00:29:33;;;;;;;20.73;8.57;;;;;;;;;;5053238;28;20049;-87
2023/09/13 00:32:04;;;;;;;8.85;7.70;;;;;;;;;;5035711;28;20084;-88
2023/09/13 00:34:31;;;;;;;12.27;8.15;;;;;;;;;;5053308;28;20057;-89
2023/09/13 00:36:58;;;;;;;15.25;9.88;;;;;;;;;;5035733;28;20072;-88
2023/09/13 00:39:26;;;;;;;14.75;8.90;;;;;;;;;;5035225;28;20140;-87
2023/09/13 00:41:53;;;;;;;15.45;8.82;;;;;;;;;;5035590;28;20048;-87
2023/09/13 00:44:20;;;;;;;13.05;9.73;;;;;;;;;;5035452;28;20107;-87
2023/09/13 00:46:48;;;;;;;12.88;8.77;;;;;;;;;;5035463;28;20103;-87
2023/09/13 00:49:15;;;;;;;9.77;8.23;;;;;;;;;;5035528;28;20519;-88
2023/09/13 00:51:43;;;;;;;12.65;8.27;;;;;;;;;;5035279;28;20464;-87
2023/09/13 00:54:10;;;;;;;8.77;6.95;;;;;;;;;;5052640;28;20056;-87
2023/09/13 00:56:39;;;;;;;11.30;7.38;;;;;;;;;;5035244;28;20136;-87
2023/09/13 00:59:09;;;;;;;14.00;7.82;;;;;;;;;;5037923;28;20091;-87
2023/09/13 01:01:36;;;;;;;8.02;6.78;;;;;;;;;;5039074;28;20048;-88
2023/09/13 01:04:04;;;;;;;11.13;7.07;;;;;;;;;;5038979;28;20119;-87
2023/09/13 01:06:33;;;;;;;7.38;6.57;;;;;;;;;;5038902;28;20133;-87
2023/09/13 01:09:04;;;;;;;8.75;7.35;;;;;;;;;;5056774;28;20111;-87
2023/09/13 01:11:31;;;;;;;8.07;6.10;;;;;;;;;;5058117;28;20099;-87
2023/09/13 01:13:58;;;;;;;8.75;7.00;;;;;;;;;;5042578;28;20481;-88
2023/09/13 01:16:38;;;;;;;6.68;6.10;;;;;;;;;;5038848;28;20049;-87
2023/09/13 01:19:13;;;;;;;8.90;6.88;;;;;;;;;;5056124;28;20053;-86
2023/09/13 01:21:53;;;;;;;8.20;7.18;;;;;;;;;;5038610;28;20041;-87
2023/09/13 01:24:45;;;;;;;7.68;6.45;;;;;;;;;;5038677;28;20052;-86
2023/09/13 01:27:36;;;;;;;10.45;6.20;;;;;;;;;;5038449;28;20508;-87
2023/09/13 01:30:04;;;;;;;8.48;7.22;;;;;;;;;;5027605;28;20045;-87
2023/09/13 01:32:34;;;;;;;10.73;7.15;;;;;;;;;;5055915;28;20052;-87
2023/09/13 01:35:02;;;;;;;11.88;8.02;;;;;;;;;;5055842;28;20060;-87
2023/09/13 01:37:30;;;;;;;13.05;8.95;;;;;;;;;;5037974;28;20041;-87
2023/09/13 01:39:58;;;;;;;18.80;8.55;;;;;;;;;;5037923;28;20059;-88
2023/09/13 01:42:25;;;;;;;12.20;8.00;;;;;;;;;;5038457;28;20408;-87
2023/09/13 01:44:53;;;;;;;7.28;6.43;;;;;;;;;;5038726;28;20045;-87
2023/09/13 01:47:22;;;;;;;13.43;8.55;;;;;;;;;;5038608;28;20174;-87
2023/09/13 01:49:50;;;;;;;14.85;9.10;;;;;;;;;;5038391;28;20558;-88
2023/09/13 01:52:18;;;;;;;12.07;8.65;;;;;;;;;;5038359;28;20056;-87
2023/09/13 01:54:45;;;;;;;11.43;7.45;;;;;;;;;;5038240;28;20060;-87
2023/09/13 01:57:13;;;;;;;12.20;7.93;;;;;;;;;;5038455;28;20483;-87
2023/09/13 01:59:40;;;;;;;12.50;8.95;;;;;;;;;;5030212;28;20049;-87
2023/09/13 02:02:07;;;;;;;14.07;8.73;;;;;;;;;;5038413;28;20064;-88
2023/09/13 02:04:34;;;;;;;12.95;9.02;;;;;;;;;;5037968;28;20068;-87
2023/09/13 02:07:02;;;;;;;9.18;8.10;;;;;;;;;;5038061;28;20056;-88
2023/09/13 02:09:30;;;;;;;17.90;9.65;;;;;;;;;;5037348;28;20049;-88
2023/09/13 02:11:58;;;;;;;13.77;8.88;;;;;;;;;;5037991;28;20040;-88
2023/09/13 02:14:25;;;;;;;13.70;8.10;;;;;;;;;;5037650;28;20049;-88
2023/09/13 02:16:52;;;;;;;12.20;8.48;;;;;;;;;;5037523;28;20079;-89
2023/09/13 02:19:19;;;;;;;14.57;8.45;;;;;;;;;;5036940;28;20056;-88
2023/09/13 02:21:47;;;;;;;13.75;8.13;;;;;;;;;;5030473;28;20079;-88
2023/09/13 02:24:14;;;;;;;13.13;9.00;;;;;;;;;;5037759;28;20048;-88
2023/09/13 02:26:41;;;;;;;10.27;8.00;;;;;;;;;;5038107;28;20044;-88
2023/09/13 02:29:09;;;;;;;8.88;7.95;;;;;;;;;;5042918;28;20095;-89
2023/09/13 02:31:36;;;;;;;11.88;8.57;;;;;;;;;;5043163;28;20049;-88
2023/09/13 02:34:04;;;;;;;10.88;8.82;;;;;;;;;;5039641;28;20057;-88
2023/09/13 02:36:31;;;;;;;12.07;8.68;;;;;;;;;;5037530;28;20049;-87
2023/09/13 02:38:59;;;;;;;9.63;8.07;;;;;;;;;;5037360;28;20080;-87
2023/09/13 02:41:27;;;;;;;8.95;8.05;;;;;;;;;;5037364;28;20057;-88
2023/09/13 02:43:54;;;;;;;13.77;8.95;;;;;;;;;;5037392;28;20098;-88
2023/09/13 02:46:21;;;;;;;9.10;8.20;;;;;;;;;;5036986;28;20049;-88
2023/09/13 02:48:49;;;;;;;15.93;9.32;;;;;;;;;;5037076;28;20074;-88
2023/09/13 02:51:19;;;;;;;13.85;8.95;;;;;;;;;;5037820;28;20432;-88
2023/09/13 02:53:46;;;;;;;10.55;9.45;;;;;;;;;;5037027;28;20049;-89
2023/09/13 02:56:14;;;;;;;13.82;8.88;;;;;;;;;;5037294;28;20115;-88
2023/09/13 02:58:41;;;;;;;19.05;10.93;;;;;;;;;;5036878;28;20040;-88
2023/09/13 03:01:10;;;;;;;17.85;9.10;;;;;;;;;;5036877;28;20052;-88
2023/09/13 03:03:38;;;;;;;12.93;8.48;;;;;;;;;;5037214;28;20517;-88
2023/09/13 03:06:07;;;;;;;13.45;9.82;;;;;;;;;;5037185;28;20068;-88
2023/09/13 03:08:34;;;;;;;13.05;9.80;;;;;;;;;;5036505;28;20060;-89
2023/09/13 03:11:28;;;;;;;17.10;10.07;;;;;;;;;;5036733;28;20169;-88
2023/09/13 03:13:55;;;;;;;13.10;8.68;;;;;;;;;;5028872;28;20114;-89
2023/09/13 03:16:23;;;;;;;12.40;8.57;;;;;;;;;;5036560;28;20122;-88
2023/09/13 03:18:51;;;;;;;13.25;8.77;;;;;;;;;;5036624;28;20520;-89
2023/09/13 03:21:19;;;;;;;12.93;8.50;;;;;;;;;;5059511;28;20049;-89
2023/09/13 03:23:50;;;;;;;11.38;8.48;;;;;;;;;;5036407;28;20057;-89
2023/09/13 03:26:17;;;;;;;9.35;8.25;;;;;;;;;;5036276;28;20084;-89
2023/09/13 03:28:48;;;;;;;12.52;10.23;;;;;;;;;;5036496;28;20095;-88
2023/09/13 03:31:17;;;;;;;15.40;10.45;;;;;;;;;;5053802;28;20053;-88
2023/09/13 03:33:45;;;;;;;18.10;10.77;;;;;;;;;;5036371;28;20128;-89
2023/09/13 03:36:13;;;;;;;11.52;9.70;;;;;;;;;;5036547;28;20062;-89
2023/09/13 03:38:42;;;;;;;9.75;8.77;;;;;;;;;;5052300;28;20056;-89
2023/09/13 03:41:11;;;;;;;15.35;10.60;;;;;;;;;;5053294;28;20299;-88
2023/09/13 03:43:38;;;;;;;13.90;10.02;;;;;;;;;;5053340;28;20629;-88
2023/09/13 03:46:06;;;;;;;17.50;11.57;;;;;;;;;;5037056;28;20053;-89
2023/09/13 03:48:34;;;;;;;16.85;10.98;;;;;;;;;;5042294;28;20052;-89
2023/09/13 03:51:01;;;;;;;11.57;9.45;;;;;;;;;;5053853;28;20059;-89
2023/09/13 03:53:29;;;;;;;13.60;10.07;;;;;;;;;;5036005;28;20504;-89
2023/09/13 03:55:57;;;;;;;20.05;11.05;;;;;;;;;;5036250;28;20132;-88
2023/09/13 03:58:24;;;;;;;11.98;8.90;;;;;;;;;;5035930;28;20053;-88
2023/09/13 04:00:51;;;;;;;11.25;9.88;;;;;;;;;;5036116;28;20076;-89
2023/09/13 04:03:20;;;;;;;12.43;9.90;;;;;;;;;;5035867;28;20053;-89
2023/09/13 04:05:48;;;;;;;15.70;11.18;;;;;;;;;;5035941;28;20095;-88
2023/09/13 04:08:15;;;;;;;14.35;10.07;;;;;;;;;;5035808;28;20051;-89
2023/09/13 04:10:43;;;;;;;15.38;9.15;;;;;;;;;;5036143;28;20049;-90
2023/09/13 04:13:10;;;;;;;10.95;9.82;;;;;;;;;;5036056;28;20045;-88
2023/09/13 04:15:38;;;;;;;15.10;10.00;;;;;;;;;;5035676;28;20511;-88
2023/09/13 04:18:08;;;;;;;10.93;9.27;;;;;;;;;;5035512;28;20521;-88
2023/09/13 04:20:35;;;;;;;12.20;10.20;;;;;;;;;;5035827;28;20064;-88
2023/09/13 04:23:03;;;;;;;12.25;9.57;;;;;;;;;;5036040;28;20052;-88
2023/09/13 04:25:30;;;;;;;15.30;11.27;;;;;;;;;;5035585;28;20048;-87
2023/09/13 04:27:57;;;;;;;13.02;10.00;;;;;;;;;;5035787;28;20559;-88
2023/09/13 04:30:24;;;;;;;13.35;11.10;;;;;;;;;;5035780;28;20053;-88
2023/09/13 04:32:52;;;;;;;23.98;11.57;;;;;;;;;;5036509;28;20049;-88
2023/09/13 04:35:19;;;;;;;20.77;10.48;;;;;;;;;;5039637;28;20061;-89
2023/09/13 04:37:46;;;;;;;11.65;9.75;;;;;;;;;;5039607;28;20106;-89
2023/09/13 04:40:14;;;;;;;18.00;10.00;;;;;;;;;;5039735;28;20049;-88
2023/09/13 04:42:42;;;;;;;14.80;9.90;;;;;;;;;;5039588;28;20148;-88
2023/09/13 04:45:10;;;;;;;13.73;9.27;;;;;;;;;;5039834;28;20056;-88
2023/09/13 04:47:38;;;;;;;10.57;8.80;;;;;;;;;;5040471;28;20094;-88
2023/09/13 04:50:06;;;;;;;10.73;9.27;;;;;;;;;;5043235;28;20090;-88
2023/09/13 04:52:35;;;;;;;12.90;9.48;;;;;;;;;;5039397;28;20063;-88
2023/09/13 04:55:02;;;;;;;10.57;8.70;;;;;;;;;;5038921;28;20045;-88
2023/09/13 04:57:30;;;;;;;15.50;9.73;;;;;;;;;;5038970;28;20076;-88
2023/09/13 04:59:57;;;;;;;13.75;9.60;;;;;;;;;;5038984;28;20103;-87
2023/09/13 05:02:24;;;;;;;13.50;9.90;;;;;;;;;;5038928;28;20041;-88
2023/09/13 05:04:51;;;;;;;11.23;9.07;;;;;;;;;;5045463;28;20052;-89
2023/09/13 05:07:19;;;;;;;13.00;9.32;;;;;;;;;;5038846;28;20394;-87
2023/09/13 05:09:46;;;;;;;13.20;8.98;;;;;;;;;;5038691;28;20060;-88
2023/09/13 05:12:13;;;;;;;9.82;8.82;;;;;;;;;;5038625;28;20073;-88
2023/09/13 05:14:42;;;;;;;17.50;9.40;;;;;;;;;;5056055;28;20044;-87
2023/09/13 05:17:10;;;;;;;18.45;10.20;;;;;;;;;;5056231;28;20333;-88
2023/09/13 05:19:37;;;;;;;11.15;9.63;;;;;;;;;;5038422;28;20052;-87
2023/09/13 05:22:05;;;;;;;12.90;9.85;;;;;;;;;;5038157;28;20088;-86
2023/09/13 05:24:32;;;;;;;14.90;11.02;;;;;;;;;;5038454;28;20041;-87
2023/09/13 05:26:59;;;;;;;13.50;10.32;;;;;;;;;;5038710;28;20357;-88
2023/09/13 05:29:27;;;;;;;25.83;11.90;;;;;;;;;;5038740;28;20045;-89
2023/09/13 05:31:54;;;;;;;13.90;10.77;;;;;;;;;;5035741;28;20045;-87
2023/09/13 05:34:25;;;;;;;12.20;11.00;;;;;;;;;;5032645;28;20049;-86
2023/09/13 05:36:52;;;;;;;16.92;11.00;;;;;;;;;;5052995;28;20049;-87
2023/09/13 05:39:20;;;;;;;12.55;10.60;;;;;;;;;;5038284;28;20106;-87
2023/09/13 05:41:49;;;;;;;13.88;10.80;;;;;;;;;;5055685;28;20076;-86
2023/09/13 05:44:24;;;;;;;12.30;9.07;;;;;;;;;;5037031;28;20106;-86
2023/09/13 05:46:52;;;;;;;9.77;8.82;;;;;;;;;;5038110;28;20053;-86
2023/09/13 05:49:20;;;;;;;11.05;9.00;;;;;;;;;;5037959;28;20420;-86
2023/09/13 05:51:47;;;;;;;12.75;8.52;;;;;;;;;;5055308;28;20132;-86
2023/09/13 05:54:15;;;;;;;13.18;8.73;;;;;;;;;;5037583;28;20068;-87
2023/09/13 05:56:42;;;;;;;11.88;8.32;;;;;;;;;;5055320;28;20057;-86
2023/09/13 05:59:09;;;;;;;16.17;9.00;;;;;;;;;;5037726;28;20053;-86
2023/09/13 06:01:37;;;;;;;10.80;9.60;;;;;;;;;;5037462;28;20057;-86
2023/09/13 06:04:05;;;;;;;10.77;9.60;;;;;;;;;;5037966;28;20068;-86
2023/09/13 06:06:34;;;;;;;11.05;7.95;;;;;;;;;;5037476;28;20057;-86
2023/09/13 06:09:03;;;;;;;8.63;7.82;;;;;;;;;;5037708;28;20045;-86
2023/09/13 06:11:31;;;;;;;8.65;7.75;;;;;;;;;;5037649;28;20053;-86
2023/09/13 06:13:59;;;;;;;10.90;6.65;;;;;;;;;;5037897;28;20407;-86
2023/09/13 06:16:26;;;;;;;9.13;6.50;;;;;;;;;;5037424;28;20394;-85
2023/09/13 06:18:54;;;;;;;16.70;6.63;;;;;;;;;;5037411;28;20045;-86
2023/09/13 06:21:21;;;;;;;7.50;6.50;;;;;;;;;;5037790;28;20413;-86
2023/09/13 06:23:49;;;;;;;7.35;5.40;;;;;;;;;;5038295;28;20073;-85
2023/09/13 06:26:16;;;;;;;7.93;5.60;;;;;;;;;;5054624;28;20091;-85
2023/09/13 06:28:44;;;;;;;7.03;5.45;;;;;;;;;;5037014;28;20052;-85
2023/09/13 06:31:11;;;;;;;6.32;5.22;;;;;;;;;;5037160;28;20044;-85
2023/09/13 06:33:59;;;;;;;10.00;6.03;;;;;;;;;;5034576;28;20049;-86
2023/09/13 06:36:50;;;;;;;8.45;6.15;;;;;;;;;;5040271;28;20061;-86
2023/09/13 06:39:19;;;;;;;13.82;7.32;;;;;;;;;;5037101;28;20057;-85
2023/09/13 06:41:46;;;;;;;8.80;7.20;;;;;;;;;;5036707;28;20463;-84
2023/09/13 06:44:14;;;;;;;15.38;7.47;;;;;;;;;;5054791;28;20069;-85
2023/09/13 06:46:42;;;;;;;9.95;6.32;;;;;;;;;;5046684;28;20091;-85
2023/09/13 06:49:17;;;;;;;10.93;6.30;;;;;;;;;;5054273;28;20099;-84
2023/09/13 06:51:47;;;;;;;7.53;5.38;;;;;;;;;;5037054;28;20448;-85
2023/09/13 06:54:20;;;;;;;8.82;5.53;;;;;;;;;;5037279;28;20055;-85
2023/09/13 06:56:51;;;;;;;10.20;5.72;;;;;;;;;;5035927;28;20512;-86
2023/09/13 06:59:24;;;;;;;7.35;5.35;;;;;;;;;;5052052;28;20071;-86
2023/09/13 07:01:55;;;;;;;7.90;4.93;;;;;;;;;;5035183;28;20044;-85
2023/09/13 07:04:42;;;;;;;5.32;4.47;;;;;;;;;;5052213;28;20409;-86
2023/09/13 07:07:11;;;;;;;9.02;4.75;;;;;;;;;;5053170;28;20060;-86
2023/09/13 07:09:41;;;;;;;5.43;4.03;;;;;;;;;;5035706;28;20536;-87
2023/09/13 07:12:08;;;;;;;6.55;4.93;;;;;;;;;;5053503;28;20052;-87
2023/09/13 07:14:35;;;;;;;5.47;4.25;;;;;;;;;;5035670;28;20107;-87
2023/09/13 07:17:03;;;;;;;5.03;3.40;;;;;;;;;;5036668;28;20045;-88
2023/09/13 07:19:30;;;;;;;3.30;3.00;;;;;;;;;;5036608;28;20056;-87
2023/09/13 07:21:58;;;;;;;4.75;3.30;;;;;;;;;;5054054;28;20076;-89
2023/09/13 07:24:25;;;;;;;4.28;3.22;;;;;;;;;;5054013;28;20534;-88
2023/09/13 07:26:52;;;;;;;3.25;2.88;;;;;;;;;;5053880;28;20459;-88
2023/09/13 07:29:20;;;;;;;3.33;3.13;;;;;;;;;;5053433;28;20091;-89
2023/09/13 07:31:47;;;;;;;3.70;3.40;;;;;;;;;;5035783;28;20080;-88
2023/09/13 07:34:16;;;;;;;3.35;2.70;;;;;;;;;;5036349;28;20063;-88
2023/09/13 07:36:57;;;;;;;3.80;2.70;;;;;;;;;;5038359;28;20107;-89
2023/09/13 07:39:25;;;;;;;3.00;2.80;;;;;;;;;;5065118;28;20041;-87
2023/09/13 07:41:52;;;;;;;5.90;3.33;;;;;;;;;;5056730;28;20045;-88
2023/09/13 07:44:19;;;;;;;3.08;2.67;;;;;;;;;;5036010;28;20045;-89
2023/09/13 07:46:47;;;;;;;3.08;2.80;;;;;;;;;;5035635;28;20455;-87
2023/09/13 07:49:14;;;;;;;3.05;2.70;;;;;;;;;;5035826;28;20049;-89
2023/09/13 07:51:41;;;;;;;3.50;3.20;;;;;;;;;;5035933;28;20080;-88
2023/09/13 07:54:09;;;;;;;3.20;2.67;;;;;;;;;;5035884;28;20390;-87
2023/09/13 07:56:37;;;;;;;2.97;2.78;;;;;;;;;;5035696;28;20049;-88
2023/09/13 07:59:07;;;;;;;4.45;2.80;;;;;;;;;;5035496;28;20486;-88
2023/09/13 08:01:34;;;;;;;3.28;2.97;;;;;;;;;;5050394;28;20057;-88
2023/09/13 08:04:02;;;;;;;9.18;3.10;;;;;;;;;;5025691;28;20071;-87
2023/09/13 08:06:30;;;;;;;10.57;3.45;;;;;;;;;;5029864;28;20497;-88
2023/09/13 08:08:58;;;;;;;3.60;3.30;;;;;;;;;;5030522;28;20432;-87
2023/09/13 08:11:28;;;;;;;3.35;3.05;;;;;;;;;;5036379;28;20083;-87
2023/09/13 08:13:56;;;;;;;3.28;2.97;;;;;;;;;;5053275;28;20049;-87
2023/09/13 08:16:23;;;;;;;4.93;3.30;;;;;;;;;;5035612;28;20057;-82
2023/09/13 08:18:50;;;;;;;4.78;3.22;;;;;;;;;;5052675;28;20124;-86
2023/09/13 08:21:18;;;;;;;4.25;3.80;;;;;;;;;;5053089;28;20052;-87
2023/09/13 08:23:45;;;;;;;5.72;3.53;;;;;;;;;;5035823;28;20049;-87
2023/09/13 08:26:12;;;;;;;3.60;3.40;;;;;;;;;;5052941;28;20551;-87
2023/09/13 08:28:54;;;;;;;3.40;3.20;;;;;;;;;;5031532;28;20049;-87
2023/09/13 08:31:23;;;;;;;3.63;3.33;;;;;;;;;;5035249;28;20083;-86
2023/09/13 08:33:51;;;;;;;4.38;3.40;;;;;;;;;;5035540;28;20061;-88
2023/09/13 08:36:19;;;;;;;3.80;3.30;;;;;;;;;;5035207;28;20049;-87
2023/09/13 08:38:46;;;;;;;3.13;2.92;;;;;;;;;;5052609;28;20060;-88
2023/09/13 08:41:17;;;;;;;3.60;3.15;;;;;;;;;;5035686;28;20057;-88
2023/09/13 08:43:45;;;;;;;3.55;2.70;;;;;;;;;;5035439;28;20077;-86
2023/09/13 08:46:12;;;;;;;3.10;2.67;;;;;;;;;;5034845;28;20080;-88
2023/09/13 08:48:41;;;;;;;4.38;2.60;;;;;;;;;;5035504;28;20041;-89
2023/09/13 08:51:10;;;;;;;3.03;2.83;;;;;;;;;;5035612;28;20049;-87
2023/09/13 08:53:37;;;;;;;3.22;2.95;;;;;;;;;;5032339;28;20095;-86
2023/09/13 08:56:06;;;;;;;3.70;2.80;;;;;;;;;;5034194;28;20079;-87
2023/09/13 08:58:35;;;;;;;3.15;2.95;;;;;;;;;;5044926;28;20049;-88
2023/09/13 09:01:04;;;;;;;3.10;2.90;;;;;;;;;;5035392;28;20084;-86
2023/09/13 09:03:33;;;;;;;3.20;3.00;;;;;;;;;;5052518;28;20542;-88
2023/09/13 09:06:00;;;;;;;4.10;2.78;;;;;;;;;;5035395;28;20057;-88
2023/09/13 09:08:28;;;;;;;3.17;2.97;;;;;;;;;;5035276;28;20538;-87
2023/09/13 09:10:59;;;;;;;3.00;2.83;;;;;;;;;;5052692;28;20048;-87
2023/09/13 09:13:27;;;;;;;7.43;3.70;;;;;;;;;;5035167;28;20049;-87
2023/09/13 09:15:55;;;;;;;2.50;2.40;;;;;;;;;;5034808;28;20073;-86
2023/09/13 09:18:24;;;;;;;3.30;3.10;;;;;;;;;;5035002;28;20386;-89
2023/09/13 09:20:51;;;;;;;3.13;2.97;;;;;;;;;;5056113;28;20048;-87
2023/09/13 09:23:23;;;;;;;2.90;2.70;;;;;;;;;;5039958;28;20547;-87
2023/09/13 09:25:51;;;;;;;3.33;3.10;;;;;;;;;;5039796;28;20458;-88
2023/09/13 09:28:18;;;;;;;3.00;2.80;;;;;;;;;;5038133;28;20045;-87
2023/09/13 09:30:46;;;;;;;3.17;2.60;;;;;;;;;;5038205;28;20102;-87
2023/09/13 09:33:13;;;;;;;2.85;2.60;;;;;;;;;;5055930;28;20052;-87
2023/09/13 09:35:52;;;;;;;2.67;2.47;;;;;;;;;;5037986;28;20052;-88
2023/09/13 09:38:24;;;;;;;3.38;2.60;;;;;;;;;;5034857;28;20054;-88
2023/09/13 09:40:56;;;;;;;2.95;2.67;;;;;;;;;;5035033;28;20057;-88
2023/09/13 09:43:23;;;;;;;6.28;3.03;;;;;;;;;;5034658;28;20079;-87
2023/09/13 09:45:50;;;;;;;6.80;2.97;;;;;;;;;;5034909;28;20462;-88
2023/09/13 09:48:18;;;;;;;3.20;3.00;;;;;;;;;;5034989;28;20049;-87
2023/09/13 09:50:49;;;;;;;3.10;2.88;;;;;;;;;;5034403;28;20056;-87
2023/09/13 09:53:17;;;;;;;5.15;3.00;;;;;;;;;;5034815;28;20049;-88
2023/09/13 09:55:45;;;;;;;3.10;2.90;;;;;;;;;;5034056;28;20524;-87
2023/09/13 09:58:13;;;;;;;4.93;2.55;;;;;;;;;;5034650;28;20092;-88
2023/09/13 10:00:47;;;;;;;4.78;2.90;;;;;;;;;;5026508;28;20061;-88
2023/09/13 10:03:17;;;;;;;4.40;2.95;;;;;;;;;;5034512;28;20084;-87
2023/09/13 10:05:52;;;;;;;7.85;2.95;;;;;;;;;;5034378;28;20080;-88
2023/09/13 10:08:20;;;;;;;3.85;3.10;;;;;;;;;;5034543;28;20456;-89
2023/09/13 10:10:51;;;;;;;3.58;3.00;;;;;;;;;;5034482;28;20045;-89
2023/09/13 10:13:18;;;;;;;3.72;2.90;;;;;;;;;;5034554;28;20053;-88
2023/09/13 10:15:46;;;;;;;7.75;3.33;;;;;;;;;;5050593;28;20079;-88
2023/09/13 10:18:15;;;;;;;3.22;3.00;;;;;;;;;;5034594;28;20057;-88
2023/09/13 10:20:43;;;;;;;3.38;3.15;;;;;;;;;;5026333;28;20096;-89
2023/09/13 10:23:12;;;;;;;3.17;2.88;;;;;;;;;;5034409;28;20104;-88
2023/09/13 10:25:42;;;;;;;3.70;3.38;;;;;;;;;;5026346;28;20057;-89
2023/09/13 10:28:11;;;;;;;3.40;3.20;;;;;;;;;;5034450;28;20052;-88
2023/09/13 10:30:41;;;;;;;3.22;3.00;;;;;;;;;;5033019;28;20049;-88
2023/09/13 10:33:12;;;;;;;5.50;5.10;;;;;;;;;;5033716;28;20124;-88
2023/09/13 10:35:41;;;;;;;24.17;17.70;;;;;;;;;;5034201;28;20053;-90
2023/09/13 10:38:23;;;;;;;3.72;3.53;;;;;;;;;;5033792;28;20046;-88
2023/09/13 10:40:54;;;;;;;16.00;11.50;;;;;;;;;;5027259;28;20081;-88
2023/09/13 10:43:22;;;;;;;17.77;15.38;;;;;;;;;;5033971;28;20054;-88
2023/09/13 10:45:49;;;;;;;9.85;8.90;;;;;;;;;;5033524;28;20437;-89
2023/09/13 10:48:17;;;;;;;4.50;3.70;;;;;;;;;;5033704;28;20052;-88
2023/09/13 10:50:44;;;;;;;4.18;3.53;;;;;;;;;;5033474;28;20051;-92
2023/09/13 10:53:14;;;;;;;18.55;13.30;;;;;;;;;;5032848;28;20570;-88
2023/09/13 10:55:41;;;;;;;25.90;20.17;;;;;;;;;;5025786;28;20444;-87
2023/09/13 10:58:09;;;;;;;18.60;15.13;;;;;;;;;;5033309;28;20413;-89
2023/09/13 11:00:37;;;;;;;10.15;9.25;;;;;;;;;;5033487;28;20103;-85
2023/09/13 11:03:05;;;;;;;5.20;4.47;;;;;;;;;;5033538;28;20045;-88
2023/09/13 11:05:33;;;;;;;3.72;3.53;;;;;;;;;;5034223;28;20057;-89
2023/09/13 11:08:01;;;;;;;4.47;3.83;;;;;;;;;;5033632;28;20088;-88
2023/09/13 11:10:32;;;;;;;4.57;4.18;;;;;;;;;;5033009;28;20060;-88
2023/09/13 11:13:13;;;;;;;3.88;3.58;;;;;;;;;;5034280;28;20126;-88
2023/09/13 11:15:50;;;;;;;4.75;4.20;;;;;;;;;;5033366;28;20053;-89
2023/09/13 11:18:17;;;;;;;4.30;3.90;;;;;;;;;;5033110;28;20049;-88
2023/09/13 11:20:45;;;;;;;9.25;8.43;;;;;;;;;;5032770;28;20080;-88
2023/09/13 11:23:21;;;;;;;4.38;3.97;;;;;;;;;;5032921;28;20057;-88
2023/09/13 11:25:57;;;;;;;8.85;7.47;;;;;;;;;;5026204;28;20053;-88
2023/09/13 11:28:37;;;;;;;8.63;7.05;;;;;;;;;;5033001;28;20049;-89
2023/09/13 11:31:06;;;;;;;4.47;4.07;;;;;;;;;;5033050;28;20053;-86
2023/09/13 11:33:55;;;;;;;7.68;4.80;;;;;;;;;;5053682;28;20072;-88
2023/09/13 11:36:27;;;;;;;5.57;4.97;;;;;;;;;;5034521;28;20056;-88
2023/09/13 11:38:56;;;;;;;5.35;4.78;;;;;;;;;;5032698;28;20057;-88
2023/09/13 11:41:23;;;;;;;9.00;5.57;;;;;;;;;;5032672;28;20045;-88
2023/09/13 11:43:51;;;;;;;9.68;6.40;;;;;;;;;;5036177;28;20369;-88
2023/09/13 11:46:21;;;;;;;6.45;5.90;;;;;;;;;;5034627;28;20076;-88
2023/09/13 11:48:51;;;;;;;6.35;5.75;;;;;;;;;;5032931;28;20046;-87
2023/09/13 11:51:31;;;;;;;6.32;5.68;;;;;;;;;;5032672;28;20045;-89
2023/09/13 11:54:18;;;;;;;10.85;6.13;;;;;;;;;;5033664;28;20052;-88
2023/09/13 11:56:49;;;;;;;10.68;6.30;;;;;;;;;;5033735;28;20050;-88
2023/09/13 11:59:17;;;;;;;5.72;5.25;;;;;;;;;;5031064;28;20079;-88
2023/09/13 12:01:46;;;;;;;6.45;5.35;;;;;;;;;;5025647;28;20053;-88
2023/09/13 12:04:19;;;;;;;8.88;5.93;;;;;;;;;;5025484;28;20056;-88
2023/09/13 12:07:09;;;;;;;4.70;4.40;;;;;;;;;;5032596;28;20053;-89
2023/09/13 12:09:38;;;;;;;5.38;4.88;;;;;;;;;;5032404;28;20103;-88
2023/09/13 12:12:10;;;;;;;5.88;5.32;;;;;;;;;;5032791;28;20076;-88
2023/09/13 12:14:39;;;;;;;6.82;5.35;;;;;;;;;;5033072;28;20551;-88
2023/09/13 12:17:10;;;;;;;5.50;5.10;;;;;;;;;;5032452;28;20099;-88
2023/09/13 12:19:37;;;;;;;5.50;5.00;;;;;;;;;;5031900;28;20061;-88
2023/09/13 12:22:05;;;;;;;7.55;5.47;;;;;;;;;;5032585;28;20056;-88
2023/09/13 12:24:32;;;;;;;9.27;5.18;;;;;;;;;;5032195;28;20056;-88
2023/09/13 12:26:59;;;;;;;7.65;4.80;;;;;;;;;;5033047;28;20046;-87
2023/09/13 12:29:27;;;;;;;4.88;4.47;;;;;;;;;;5032165;28;20049;-88
2023/09/13 12:31:58;;;;;;;5.07;4.68;;;;;;;;;;5032185;28;20068;-87
2023/09/13 12:34:26;;;;;;;4.55;4.22;;;;;;;;;;5031960;28;20104;-88
2023/09/13 12:36:55;;;;;;;7.00;4.68;;;;;;;;;;5031693;28;20045;-88
2023/09/13 12:39:22;;;;;;;4.20;3.80;;;;;;;;;;5048104;28;20053;-88
2023/09/13 12:41:50;;;;;;;4.07;3.78;;;;;;;;;;5035388;28;20056;-87
2023/09/13 12:44:20;;;;;;;4.10;3.80;;;;;;;;;;5052981;28;20393;-88
2023/09/13 12:46:51;;;;;;;3.00;2.80;;;;;;;;;;5034924;28;20493;-87
2023/09/13 12:49:19;;;;;;;4.68;3.50;;;;;;;;;;5052550;28;20055;-89
2023/09/13 12:51:46;;;;;;;3.70;3.47;;;;;;;;;;5066291;28;20055;-89
2023/09/13 12:54:14;;;;;;;3.30;3.10;;;;;;;;;;5036677;28;20049;-88
2023/09/13 12:56:42;;;;;;;3.58;3.20;;;;;;;;;;5048231;28;20143;-88
2023/09/13 12:59:09;;;;;;;3.25;3.05;;;;;;;;;;5038924;28;20543;-86
2023/09/13 13:01:37;;;;;;;4.72;3.40;;;;;;;;;;5038928;28;20056;-88
2023/09/13 13:04:05;;;;;;;3.05;2.92;;;;;;;;;;5039004;28;20052;-88
2023/09/13 13:06:37;;;;;;;3.42;3.13;;;;;;;;;;5037994;28;20084;-87
2023/09/13 13:09:06;;;;;;;1.75;1.65;;;;;;;;;;5056494;28;20390;-88
2023/09/13 13:11:37;;;;;;;2.22;1.95;;;;;;;;;;5038212;28;20049;-88
2023/09/13 13:14:12;;;;;;;4.28;2.33;;;;;;;;;;5038652;28;20049;-88
2023/09/13 13:16:40;;;;;;;2.30;2.20;;;;;;;;;;5029936;28;20084;-88
2023/09/13 13:19:13;;;;;;;;;;;;;;;;;;5039802;28;20440;-88
2023/09/13 13:21:43;;;;;;;2.72;2.33;;;;;;;;;;5031071;28;20369;-87
2023/09/13 13:24:17;;;;;;;2.45;2.33;;;;;;;;;;5039374;28;20139;-88
2023/09/13 13:26:45;;;;;;;2.33;2.22;;;;;;;;;;5038410;28;20353;-88
2023/09/13 13:29:12;;;;;;;2.67;2.47;;;;;;;;;;5038533;28;20409;-88
2023/09/13 13:31:40;;;;;;;2.55;2.38;;;;;;;;;;5030012;28;20056;-88
2023/09/13 13:34:07;;;;;;;2.60;2.50;;;;;;;;;;5038354;28;20529;-88
2023/09/13 13:36:34;;;;;;;3.70;2.70;;;;;;;;;;5038022;28;20051;-89
2023/09/13 13:39:05;;;;;;;3.30;3.00;;;;;;;;;;5038320;28;20084;-88
2023/09/13 13:41:33;;;;;;;2.85;2.75;;;;;;;;;;5038264;28;20045;-88
2023/09/13 13:44:00;;;;;;;2.63;2.53;;;;;;;;;;5037967;28;20063;-88
2023/09/13 13:46:28;;;;;;;2.78;2.67;;;;;;;;;;5037978;28;20128;-88
2023/09/13 13:48:56;;;;;;;3.28;3.03;;;;;;;;;;5038193;28;20049;-88
2023/09/13 13:51:24;;;;;;;2.75;2.42;;;;;;;;;;5037975;28;20076;-87
2023/09/13 13:53:51;;;;;;;2.90;2.70;;;;;;;;;;5038334;28;20053;-88
2023/09/13 13:56:19;;;;;;;21.33;4.78;;;;;;;;;;5055444;28;20547;-89
2023/09/13 13:58:48;;;;;;;16.20;3.67;;;;;;;;;;5038210;28;20053;-89
2023/09/13 14:01:17;;;;;;;7.30;3.30;;;;;;;;;;5039176;28;20114;-89
2023/09/13 14:03:44;;;;;;;3.88;3.00;;;;;;;;;;5055220;28;20045;-86
2023/09/13 14:06:13;;;;;;;3.58;3.03;;;;;;;;;;5036835;28;20071;-90
2023/09/13 14:08:40;;;;;;;7.63;3.45;;;;;;;;;;5043139;28;20071;-88
2023/09/13 14:11:07;;;;;;;3.67;3.47;;;;;;;;;;5041777;28;20049;-88
2023/09/13 14:13:35;;;;;;;10.70;3.65;;;;;;;;;;5037545;28;20488;-89
2023/09/13 14:16:02;;;;;;;3.10;2.80;;;;;;;;;;5037474;28;20496;-87
2023/09/13 14:18:29;;;;;;;3.35;3.10;;;;;;;;;;5037174;28;20048;-89
2023/09/13 14:20:57;;;;;;;7.13;3.30;;;;;;;;;;5037978;28;20419;-88
2023/09/13 14:23:25;;;;;;;4.63;2.70;;;;;;;;;;5037031;28;20053;-87
2023/09/13 14:25:52;;;;;;;2.47;2.38;;;;;;;;;;5037325;28;20103;-86
2023/09/13 14:28:20;;;;;;;5.10;2.85;;;;;;;;;;5037114;28;20098;-88
2023/09/13 14:30:48;;;;;;;4.57;2.45;;;;;;;;;;5037055;28;20049;-88
2023/09/13 14:33:17;;;;;;;4.35;2.88;;;;;;;;;;5054712;28;20049;-89
2023/09/13 14:35:45;;;;;;;2.50;2.40;;;;;;;;;;5037425;28;20045;-89
2023/09/13 14:38:17;;;;;;;13.82;4.13;;;;;;;;;;5054181;28;20179;-88
2023/09/13 14:40:44;;;;;;;4.38;2.80;;;;;;;;;;5036825;28;20045;-88
2023/09/13 14:43:12;;;;;;;2.67;2.50;;;;;;;;;;5036844;28;20106;-87
2023/09/13 14:45:39;;;;;;;3.72;2.55;;;;;;;;;;5036627;28;20477;-86
2023/09/13 14:48:07;;;;;;;2.35;2.20;;;;;;;;;;5036959;28;20507;-88